createdAt,value
2018-03-06T00:01:10.045Z,79.70
2018-03-06T00:03:39.017Z,76.60
2018-03-06T00:06:07.489Z,78.90
2018-03-06T00:08:35.282Z,77.03
2018-03-06T00:11:03.686Z,80.87
2018-03-06T00:13:31.712Z,87.03
2018-03-06T00:16:00.188Z,82.70
2018-03-06T00:18:28.226Z,86.47
2018-03-06T00:20:55.904Z,72.50
2018-03-06T00:23:24.397Z,79.13
2018-03-06T00:25:52.248Z,88.80
2018-03-06T00:28:21.039Z,85.60
2018-03-06T00:30:49.419Z,83.80
2018-03-06T00:33:17.403Z,77.07
2018-03-06T00:35:45.717Z,80.47
2018-03-06T00:38:13.762Z,81.27
2018-03-06T00:40:41.428Z,77.63
2018-03-06T00:43:09.066Z,87.13
2018-03-06T00:45:38.015Z,87.63
2018-03-06T00:48:06.090Z,84.53
2018-03-06T00:50:34.457Z,85.40
2018-03-06T00:53:03.520Z,94.20
2018-03-06T00:55:31.904Z,87.87
2018-03-06T00:58:00.416Z,88.73
2018-03-06T01:00:28.070Z,91.67
2018-03-06T01:02:56.903Z,90.27
2018-03-06T01:05:24.524Z,91.23
2018-03-06T01:07:53.145Z,81.80
2018-03-06T01:10:21.225Z,82.03
2018-03-06T01:12:49.671Z,83.40
2018-03-06T01:15:17.673Z,85.13
2018-03-06T01:17:45.426Z,87.73
2018-03-06T01:20:13.068Z,89.07
2018-03-06T01:22:41.100Z,89.63
2018-03-06T01:25:09.482Z,84.63
2018-03-06T01:27:38.077Z,82.23
2018-03-06T01:30:07.160Z,84.13
2018-03-06T01:32:34.982Z,91.73
2018-03-06T01:35:03.374Z,92.47
2018-03-06T01:37:31.859Z,97.57
2018-03-06T01:39:59.876Z,91.07
2018-03-06T01:42:28.087Z,97.60
2018-03-06T01:44:55.782Z,97.70
2018-03-06T01:47:23.551Z,88.47
2018-03-06T01:49:52.247Z,92.40
2018-03-06T01:52:20.364Z,93.67
2018-03-06T01:54:49.098Z,86.77
2018-03-06T01:57:17.157Z,101.43
2018-03-06T01:59:45.614Z,85.93
2018-03-06T02:02:13.616Z,91.40
2018-03-06T02:04:42.057Z,101.10
2018-03-06T02:07:10.496Z,92.97
2018-03-06T02:09:38.891Z,85.37
2018-03-06T02:12:07.292Z,92.07
2018-03-06T02:14:35.442Z,91.87
2018-03-06T02:17:03.769Z,89.40
2018-03-06T02:19:32.264Z,96.37
2018-03-06T02:22:00.693Z,94.63
2018-03-06T02:24:29.185Z,95.50
2018-03-06T02:26:57.213Z,90.50
2018-03-06T02:29:25.651Z,91.60
2018-03-06T02:31:53.778Z,92.03
2018-03-06T02:34:21.392Z,89.57
2018-03-06T02:36:49.566Z,93.87
2018-03-06T02:39:18.439Z,90.03
2018-03-06T02:41:46.130Z,99.20
2018-03-06T02:44:14.544Z,95.30
2018-03-06T02:46:42.768Z,98.47
2018-03-06T02:49:10.782Z,89.93
2018-03-06T02:51:38.491Z,91.07
2018-03-06T02:54:06.516Z,89.90
2018-03-06T02:56:35.083Z,87.17
2018-03-06T02:59:03.853Z,95.03
2018-03-06T03:01:31.894Z,100.77
2018-03-06T03:03:59.898Z,91.93
2018-03-06T03:06:29.657Z,98.03
2018-03-06T03:08:57.736Z,94.23
2018-03-06T03:11:26.245Z,93.20
2018-03-06T03:13:55.429Z,95.37
2018-03-06T03:16:23.936Z,94.80
2018-03-06T03:18:51.596Z,103.17
2018-03-06T03:21:20.081Z,91.00
2018-03-06T03:23:48.095Z,90.60
2018-03-06T03:26:16.517Z,95.50
2018-03-06T03:28:44.566Z,98.63
2018-03-06T03:31:13.039Z,99.10
2018-03-06T03:33:41.857Z,95.57
2018-03-06T03:36:10.309Z,93.13
2018-03-06T03:38:37.971Z,99.57
2018-03-06T03:41:06.412Z,97.43
2018-03-06T03:43:34.793Z,95.00
2018-03-06T03:46:03.415Z,95.33
2018-03-06T03:48:32.234Z,98.60
2018-03-06T03:50:59.974Z,103.93
2018-03-06T03:53:28.486Z,96.57
2018-03-06T03:55:57.045Z,101.63
2018-03-06T03:58:25.506Z,99.17
2018-03-06T04:00:53.564Z,98.20
2018-03-06T04:03:21.599Z,100.27
2018-03-06T04:05:49.985Z,96.83
2018-03-06T04:08:18.428Z,104.27
2018-03-06T04:10:47.018Z,102.77
2018-03-06T04:13:15.233Z,104.20
2018-03-06T04:15:43.627Z,108.93
2018-03-06T04:18:11.719Z,101.63
2018-03-06T04:20:39.335Z,88.90
2018-03-06T04:23:06.973Z,91.07
2018-03-06T04:25:35.575Z,102.10
2018-03-06T04:28:04.150Z,95.20
2018-03-06T04:30:33.527Z,96.53
2018-03-06T04:33:01.966Z,99.53
2018-03-06T04:35:29.991Z,85.63
2018-03-06T04:37:58.384Z,90.13
2018-03-06T04:40:26.934Z,95.80
2018-03-06T04:42:55.136Z,95.83
2018-03-06T04:45:23.630Z,92.70
2018-03-06T04:47:52.027Z,94.07
2018-03-06T04:50:20.434Z,101.47
2018-03-06T04:52:48.495Z,92.57
2018-03-06T04:55:16.528Z,103.03
2018-03-06T04:57:47.801Z,90.53
2018-03-06T05:00:16.970Z,90.13
2018-03-06T05:02:44.656Z,91.07
2018-03-06T05:05:12.694Z,93.43
2018-03-06T05:07:41.096Z,83.33
2018-03-06T05:10:11.050Z,88.50
2018-03-06T05:12:39.284Z,93.87
2018-03-06T05:15:07.914Z,100.53
2018-03-06T05:17:36.337Z,97.10
2018-03-06T05:20:06.178Z,85.80
2018-03-06T05:22:34.216Z,93.43
2018-03-06T05:25:02.615Z,98.93
2018-03-06T05:27:30.338Z,94.40
2018-03-06T05:29:58.772Z,85.80
2018-03-06T05:32:26.828Z,90.30
2018-03-06T05:34:55.699Z,87.77
2018-03-06T05:37:24.116Z,79.87
2018-03-06T05:39:51.719Z,89.77
2018-03-06T05:42:20.133Z,94.93
2018-03-06T05:44:48.316Z,92.23
2018-03-06T05:47:16.350Z,86.73
2018-03-06T05:49:44.413Z,92.47
2018-03-06T05:52:12.878Z,90.50
2018-03-06T05:54:40.604Z,94.10
2018-03-06T05:57:09.197Z,94.53
2018-03-06T05:59:37.607Z,93.77
2018-03-06T06:02:05.215Z,98.50
2018-03-06T06:04:32.863Z,83.60
2018-03-06T06:07:00.924Z,87.50
2018-03-06T06:09:29.004Z,78.83
2018-03-06T06:11:57.474Z,92.20
2018-03-06T06:14:25.983Z,90.53
2018-03-06T06:16:56.633Z,82.23
2018-03-06T06:19:24.659Z,88.03
2018-03-06T06:21:52.323Z,87.40
2018-03-06T06:24:20.722Z,84.43
2018-03-06T06:26:59.984Z,93.77
2018-03-06T06:29:31.201Z,82.37
2018-03-06T06:31:58.813Z,89.60
2018-03-06T06:34:27.220Z,90.40
2018-03-06T06:36:56.043Z,85.63
2018-03-06T06:39:23.838Z,83.83
2018-03-06T06:41:53.612Z,87.97
2018-03-06T06:44:22.010Z,87.50
2018-03-06T06:46:50.112Z,82.90
2018-03-06T06:49:18.564Z,87.13
2018-03-06T06:51:47.294Z,82.20
2018-03-06T06:54:16.620Z,86.83
2018-03-06T06:56:45.156Z,89.23
2018-03-06T06:59:13.607Z,84.10
2018-03-06T07:01:41.604Z,81.10
2018-03-06T07:04:09.279Z,90.20
2018-03-06T07:06:36.873Z,80.23
2018-03-06T07:09:05.125Z,86.40
2018-03-06T07:11:32.742Z,87.33
2018-03-06T07:14:00.746Z,81.43
2018-03-06T07:16:29.176Z,78.40
2018-03-06T07:18:57.623Z,88.47
2018-03-06T07:21:27.516Z,87.57
2018-03-06T07:23:55.557Z,83.73
2018-03-06T07:26:23.954Z,92.60
2018-03-06T07:28:52.315Z,85.33
2018-03-06T07:31:20.673Z,86.53
2018-03-06T07:33:49.182Z,74.03
2018-03-06T07:36:17.986Z,74.40
2018-03-06T07:38:45.606Z,82.90
2018-03-06T07:41:13.237Z,81.23
2018-03-06T07:43:41.401Z,99.50
2018-03-06T07:46:10.237Z,99.10
2018-03-06T07:48:38.236Z,93.53
2018-03-06T07:51:06.314Z,93.40
2018-03-06T07:53:34.724Z,90.23
2018-03-06T07:56:02.706Z,98.50
2018-03-06T07:58:31.264Z,100.77
2018-03-06T08:00:59.696Z,98.80
2018-03-06T08:03:27.766Z,101.40
2018-03-06T08:05:55.564Z,103.33
2018-03-06T08:08:23.996Z,95.00
2018-03-06T08:10:51.895Z,100.70
2018-03-06T08:13:19.902Z,97.90
2018-03-06T08:15:48.544Z,88.93
2018-03-06T08:18:16.648Z,87.97
2018-03-06T08:20:44.283Z,96.60
2018-03-06T08:23:12.167Z,92.50
2018-03-06T08:25:40.321Z,91.97
2018-03-06T08:28:08.902Z,93.50
2018-03-06T08:30:36.950Z,90.70
2018-03-06T08:33:05.302Z,84.60
2018-03-06T08:35:33.889Z,81.93
2018-03-06T08:38:02.265Z,90.03
2018-03-06T08:40:30.266Z,81.13
2018-03-06T08:42:57.876Z,85.43
2018-03-06T08:45:25.870Z,75.27
2018-03-06T08:47:54.121Z,70.33
2018-03-06T08:50:21.962Z,67.80
2018-03-06T08:52:49.558Z,77.23
2018-03-06T08:55:17.156Z,75.23
2018-03-06T08:57:44.947Z,69.43
2018-03-06T09:00:12.986Z,78.13
2018-03-06T09:02:41.454Z,75.60
2018-03-06T09:05:10.010Z,67.83
2018-03-06T09:07:38.014Z,70.40
2018-03-06T09:10:06.390Z,75.57
2018-03-06T09:12:34.788Z,68.53
2018-03-06T09:15:03.156Z,74.37
2018-03-06T09:17:30.989Z,74.23
2018-03-06T09:19:58.539Z,69.50
2018-03-06T09:22:27.009Z,70.07
2018-03-06T09:24:55.419Z,70.57
2018-03-06T09:27:24.088Z,73.10
2018-03-06T09:29:52.824Z,77.23
2018-03-06T09:32:20.491Z,83.77
2018-03-06T09:34:48.125Z,74.63
2018-03-06T09:37:16.494Z,72.47
2018-03-06T09:39:44.819Z,77.77
2018-03-06T09:42:12.404Z,74.80
2018-03-06T09:44:40.145Z,71.60
2018-03-06T09:47:07.826Z,83.73
2018-03-06T09:49:35.485Z,76.57
2018-03-06T09:52:03.173Z,77.90
2018-03-06T09:54:31.560Z,84.50
2018-03-06T09:56:59.680Z,75.23
2018-03-06T09:59:28.400Z,80.83
2018-03-06T10:01:56.004Z,72.70
2018-03-06T10:04:23.581Z,78.53
2018-03-06T10:06:51.488Z,72.43
2018-03-06T10:09:19.095Z,91.60
2018-03-06T10:11:46.866Z,86.27
2018-03-06T10:14:14.780Z,80.30
2018-03-06T10:16:42.356Z,80.93
2018-03-06T10:19:10.708Z,82.57
2018-03-06T10:21:38.307Z,91.93
2018-03-06T10:24:06.687Z,81.97
2018-03-06T10:26:34.516Z,72.13
2018-03-06T10:29:02.172Z,85.43
2018-03-06T10:31:29.861Z,84.70
2018-03-06T10:33:58.235Z,88.77
2018-03-06T10:36:26.223Z,75.03
2018-03-06T10:38:53.834Z,85.93
2018-03-06T10:41:21.436Z,74.23
2018-03-06T10:43:50.153Z,76.97
2018-03-06T10:46:17.764Z,84.13
2018-03-06T10:48:45.353Z,83.33
2018-03-06T10:51:13.695Z,82.53
2018-03-06T10:53:41.357Z,83.23
2018-03-06T10:56:08.956Z,78.13
2018-03-06T10:58:36.762Z,75.70
2018-03-06T11:01:04.504Z,80.73
2018-03-06T11:03:32.112Z,85.13
2018-03-06T11:05:59.726Z,83.40
2018-03-06T11:08:27.341Z,81.43
2018-03-06T11:10:55.062Z,78.43
2018-03-06T11:13:22.680Z,83.20
2018-03-06T11:15:50.477Z,86.73
2018-03-06T11:18:18.812Z,88.00
2018-03-06T11:20:47.176Z,78.37
2018-03-06T11:23:14.859Z,83.87
2018-03-06T11:25:42.545Z,80.87
2018-03-06T11:28:10.490Z,81.63
2018-03-06T11:30:38.862Z,79.77
2018-03-06T11:33:07.256Z,75.93
2018-03-06T11:35:35.673Z,83.63
2018-03-06T11:38:03.291Z,77.20
2018-03-06T11:40:30.884Z,78.03
2018-03-06T11:42:58.471Z,87.70
2018-03-06T11:45:26.110Z,82.37
2018-03-06T11:47:53.736Z,81.10
2018-03-06T11:50:21.344Z,78.60
2018-03-06T11:52:49.765Z,80.17
2018-03-06T11:55:17.347Z,80.00
2018-03-06T11:57:44.923Z,76.07
2018-03-06T12:00:12.640Z,78.70
2018-03-06T12:02:40.320Z,74.37
2018-03-06T12:05:08.604Z,87.63
2018-03-06T12:07:37.453Z,82.50
2018-03-06T12:10:05.108Z,78.47
2018-03-06T12:12:32.660Z,81.27
2018-03-06T12:15:01.024Z,75.17
2018-03-06T12:17:29.165Z,72.93
2018-03-06T12:19:56.781Z,77.60
2018-03-06T12:22:25.152Z,83.57
2018-03-06T12:24:52.826Z,75.03
2018-03-06T12:27:21.332Z,73.00
2018-03-06T12:29:49.504Z,67.70
2018-03-06T12:32:17.965Z,77.37
2018-03-06T12:34:46.923Z,75.53
2018-03-06T12:37:14.735Z,68.27
2018-03-06T12:39:43.191Z,69.90
2018-03-06T12:42:11.139Z,75.03
2018-03-06T12:44:38.725Z,70.07
2018-03-06T12:47:07.575Z,68.10
2018-03-06T12:49:35.186Z,67.40
2018-03-06T12:52:02.776Z,74.80
2018-03-06T12:54:30.339Z,88.57
2018-03-06T12:56:58.113Z,87.10
2018-03-06T12:59:25.676Z,87.53
2018-03-06T13:01:53.729Z,88.67
2018-03-06T13:04:21.304Z,88.53
2018-03-06T13:06:48.947Z,85.23
2018-03-06T13:09:17.127Z,83.87
2018-03-06T13:11:44.729Z,90.73
2018-03-06T13:14:12.428Z,80.00
2018-03-06T13:16:40.166Z,89.10
2018-03-06T13:19:08.701Z,80.47
2018-03-06T13:21:36.332Z,71.03
2018-03-06T13:24:03.934Z,66.47
2018-03-06T13:26:31.550Z,61.60
2018-03-06T13:28:59.136Z,62.57
2018-03-06T13:31:26.836Z,60.90
2018-03-06T13:33:55.202Z,63.23
2018-03-06T13:36:22.840Z,67.87
2018-03-06T13:38:50.476Z,72.10
2018-03-06T13:41:18.088Z,73.90
2018-03-06T13:43:45.691Z,72.47
2018-03-06T13:46:13.347Z,68.17
2018-03-06T13:48:41.032Z,72.50
2018-03-06T13:51:08.797Z,70.03
2018-03-06T13:53:36.396Z,74.07
2018-03-06T13:56:03.967Z,62.40
2018-03-06T13:58:31.777Z,60.67
2018-03-06T14:00:59.579Z,70.33
2018-03-06T14:03:27.239Z,67.43
2018-03-06T14:05:54.856Z,59.80
2018-03-06T14:08:22.595Z,64.80
2018-03-06T14:10:51.000Z,69.77
2018-03-06T14:13:18.759Z,69.10
2018-03-06T14:15:46.388Z,70.77
2018-03-06T14:18:14.183Z,72.63
2018-03-06T14:20:42.528Z,61.90
2018-03-06T14:23:10.144Z,57.60
2018-03-06T14:25:37.899Z,60.87
2018-03-06T14:28:05.546Z,50.77
2018-03-06T14:30:33.900Z,59.50
2018-03-06T14:33:01.516Z,59.93
2018-03-06T14:35:29.573Z,65.53
2018-03-06T14:37:57.174Z,57.43
2018-03-06T14:40:24.915Z,55.20
2018-03-06T14:42:52.598Z,62.17
2018-03-06T14:45:20.802Z,57.73
2018-03-06T14:47:50.001Z,63.50
2018-03-06T14:50:18.435Z,54.97
2018-03-06T14:52:46.032Z,65.80
2018-03-06T14:55:14.165Z,51.03
2018-03-06T14:57:41.795Z,55.93
2018-03-06T15:00:09.570Z,61.27
2018-03-06T15:02:37.185Z,62.87
2018-03-06T15:05:04.812Z,64.60
2018-03-06T15:07:32.408Z,71.50
2018-03-06T15:09:59.983Z,68.40
2018-03-06T15:12:28.351Z,64.93
2018-03-06T15:14:56.077Z,55.40
2018-03-06T15:17:23.682Z,59.13
2018-03-06T15:19:51.277Z,62.10
2018-03-06T15:22:19.012Z,59.60
2018-03-06T15:24:47.469Z,59.33
2018-03-06T15:27:15.163Z,63.63
2018-03-06T15:29:42.792Z,59.40
2018-03-06T15:32:10.522Z,58.23
2018-03-06T15:34:38.116Z,59.73
2018-03-06T15:37:05.712Z,58.40
2018-03-06T15:39:34.674Z,61.70
2018-03-06T15:42:03.042Z,65.90
2018-03-06T15:44:30.821Z,61.27
2018-03-06T15:46:59.192Z,54.97
2018-03-06T15:49:26.833Z,58.57
2018-03-06T15:51:54.416Z,62.53
2018-03-06T15:54:22.131Z,62.53
2018-03-06T15:56:49.861Z,62.83
2018-03-06T15:59:18.255Z,66.73
2018-03-06T16:01:46.746Z,61.73
2018-03-06T16:04:15.106Z,63.70
2018-03-06T16:06:43.481Z,73.50
2018-03-06T16:09:11.863Z,58.40
2018-03-06T16:11:40.217Z,62.83
2018-03-06T16:14:07.996Z,60.37
2018-03-06T16:16:35.588Z,57.03
2018-03-06T16:19:03.203Z,39.13
2018-03-06T16:21:30.788Z,45.30
2018-03-06T16:23:59.215Z,40.50
2018-03-06T16:26:26.794Z,45.57
2018-03-06T16:28:54.401Z,57.53
2018-03-06T16:31:22.013Z,45.10
2018-03-06T16:33:49.630Z,45.73
2018-03-06T16:36:17.238Z,47.30
2018-03-06T16:38:44.817Z,47.97
2018-03-06T16:41:12.441Z,44.83
2018-03-06T16:43:40.027Z,53.27
2018-03-06T16:46:08.126Z,52.73
2018-03-06T16:48:35.780Z,55.63
2018-03-06T16:51:03.416Z,53.40
2018-03-06T16:53:31.043Z,51.10
2018-03-06T16:55:58.629Z,52.13
2018-03-06T16:58:26.194Z,51.70
2018-03-06T17:00:53.797Z,51.93
2018-03-06T17:03:22.361Z,49.83
2018-03-06T17:05:50.739Z,48.17
2018-03-06T17:08:18.381Z,54.10
2018-03-06T17:10:45.976Z,55.00
2018-03-06T17:13:14.332Z,49.50
2018-03-06T17:15:41.957Z,53.07
2018-03-06T17:18:09.557Z,50.43
2018-03-06T17:20:37.935Z,50.87
2018-03-06T17:23:06.268Z,53.23
2018-03-06T17:25:34.053Z,51.53
2018-03-06T17:28:01.729Z,48.97
2018-03-06T17:30:29.336Z,49.40
2018-03-06T17:32:57.685Z,50.33
2018-03-06T17:35:25.369Z,50.60
2018-03-06T17:37:52.967Z,50.53
2018-03-06T17:40:21.014Z,54.87
2018-03-06T17:42:48.620Z,55.23
2018-03-06T17:45:16.205Z,52.73
2018-03-06T17:47:44.595Z,54.40
2018-03-06T17:50:15.285Z,54.23
2018-03-06T17:52:42.897Z,52.93
2018-03-06T17:55:10.483Z,52.77
2018-03-06T17:57:38.072Z,57.40
2018-03-06T18:00:05.957Z,52.33
2018-03-06T18:02:33.684Z,49.43
2018-03-06T18:05:01.322Z,54.23
2018-03-06T18:07:29.345Z,52.10
2018-03-06T18:09:56.960Z,45.57
2018-03-06T18:12:24.565Z,53.17
2018-03-06T18:14:52.609Z,50.93
2018-03-06T18:17:20.964Z,51.00
2018-03-06T18:19:48.579Z,52.37
2018-03-06T18:22:16.980Z,50.53
2018-03-06T18:24:44.605Z,51.33
2018-03-06T18:27:12.284Z,52.13
2018-03-06T18:29:40.644Z,49.97
2018-03-06T18:32:08.372Z,49.97
2018-03-06T18:34:35.944Z,50.30
2018-03-06T18:37:03.529Z,50.73
2018-03-06T18:39:31.107Z,50.30
2018-03-06T18:41:59.544Z,57.27
2018-03-06T18:44:27.158Z,52.43
2018-03-06T18:46:54.791Z,49.93
2018-03-06T18:49:22.796Z,52.83
2018-03-06T18:51:51.171Z,52.60
2018-03-06T18:54:19.513Z,57.47
2018-03-06T18:56:47.880Z,51.67
2018-03-06T18:59:16.236Z,54.80
2018-03-06T19:02:15.322Z,50.60
2018-03-06T19:04:55.165Z,54.93
2018-03-06T19:07:23.600Z,48.43
2018-03-06T19:09:51.409Z,54.93
2018-03-06T19:12:19.290Z,60.17
2018-03-06T19:14:46.875Z,55.97
2018-03-06T19:17:14.580Z,52.00
2018-03-06T19:19:52.969Z,53.87
2018-03-06T19:22:22.784Z,62.50
2018-03-06T19:24:50.376Z,58.20
2018-03-06T19:27:18.739Z,55.13
2018-03-06T19:29:46.704Z,60.53
2018-03-06T19:32:14.689Z,60.73
2018-03-06T19:34:43.135Z,62.13
2018-03-06T19:37:10.778Z,56.23
2018-03-06T19:39:38.455Z,57.57
2018-03-06T19:42:06.806Z,56.23
2018-03-06T19:44:35.183Z,57.33
2018-03-06T19:47:02.837Z,53.50
2018-03-06T19:49:31.035Z,67.70
2018-03-06T19:51:58.731Z,64.10
2018-03-06T19:54:27.849Z,63.90
2018-03-06T19:56:55.430Z,57.10
2018-03-06T19:59:23.777Z,50.17
2018-03-06T20:01:51.368Z,54.10
2018-03-06T20:04:20.140Z,49.83
2018-03-06T20:06:48.552Z,61.23
2018-03-06T20:09:16.498Z,52.87
2018-03-06T20:11:44.086Z,54.70
2018-03-06T20:14:12.820Z,60.23
2018-03-06T20:16:40.836Z,59.67
2018-03-06T20:19:14.876Z,55.43
2018-03-06T20:21:43.246Z,55.27
2018-03-06T20:24:17.383Z,55.17
2018-03-06T20:26:45.080Z,64.00
2018-03-06T20:29:12.772Z,48.70
2018-03-06T20:31:46.119Z,53.93
2018-03-06T20:34:14.490Z,51.70
2018-03-06T20:36:42.180Z,52.37
2018-03-06T20:39:15.586Z,56.07
2018-03-06T20:41:43.175Z,51.40
2018-03-06T20:44:11.564Z,62.37
2018-03-06T20:46:44.758Z,49.70
2018-03-06T20:49:14.393Z,49.83
2018-03-06T20:54:29.601Z,56.13
2018-03-06T20:56:58.381Z,62.17
2018-03-06T20:59:26.841Z,56.70
2018-03-06T21:01:55.594Z,51.57
2018-03-06T21:04:23.721Z,53.60
2018-03-06T21:06:51.373Z,69.27
2018-03-06T21:09:19.437Z,48.07
2018-03-06T21:11:52.430Z,64.33
2018-03-06T21:14:21.793Z,53.53
2018-03-06T21:16:50.275Z,59.70
2018-03-06T21:19:18.876Z,57.43
2018-03-06T21:21:46.628Z,53.77
2018-03-06T21:24:15.004Z,51.27
2018-03-06T21:26:42.690Z,51.90
2018-03-06T21:29:10.339Z,56.17
2018-03-06T21:31:37.939Z,56.57
2018-03-06T21:34:06.480Z,62.20
2018-03-06T21:36:34.198Z,68.53
2018-03-06T21:39:01.848Z,56.37
2018-03-06T21:44:36.094Z,57.60
2018-03-06T21:47:30.577Z,53.53
2018-03-06T21:50:00.232Z,53.20
2018-03-06T21:52:28.630Z,61.17
2018-03-06T21:54:56.752Z,56.20
2018-03-06T21:57:25.195Z,60.37
2018-03-06T21:59:53.600Z,54.77
2018-03-06T22:02:21.628Z,57.60
2018-03-06T22:04:50.061Z,60.87
2018-03-06T22:07:17.697Z,61.87
2018-03-06T22:09:45.338Z,65.07
2018-03-06T22:12:13.745Z,62.20
2018-03-06T22:14:41.737Z,69.00
2018-03-06T22:17:09.426Z,65.70
2018-03-06T22:19:37.850Z,61.40
2018-03-06T22:22:05.851Z,61.13
2018-03-06T22:24:34.218Z,57.40
2018-03-06T22:27:02.679Z,58.97
2018-03-06T22:29:30.729Z,59.37
2018-03-06T22:31:59.186Z,61.23
2018-03-06T22:34:28.481Z,67.07
2018-03-06T22:36:56.152Z,60.90
2018-03-06T22:39:24.578Z,57.27
2018-03-06T22:41:52.589Z,50.63
2018-03-06T22:44:20.251Z,63.80
2018-03-06T22:46:48.108Z,62.90
2018-03-06T22:49:16.376Z,57.80
2018-03-06T22:51:44.398Z,64.23
2018-03-06T22:54:12.754Z,63.07
2018-03-06T22:56:40.406Z,60.90
2018-03-06T22:59:08.042Z,61.93
2018-03-06T23:01:35.965Z,60.77
2018-03-06T23:04:04.323Z,63.13
2018-03-06T23:06:31.938Z,67.13
2018-03-06T23:09:00.318Z,61.67
2018-03-06T23:11:28.087Z,69.20
2018-03-06T23:13:56.092Z,73.17
2018-03-06T23:16:23.733Z,62.80
2018-03-06T23:18:51.346Z,61.07
2018-03-06T23:21:18.970Z,61.83
2018-03-06T23:23:46.705Z,58.33
2018-03-06T23:26:16.290Z,65.57
2018-03-06T23:28:43.918Z,66.73
2018-03-06T23:31:11.523Z,59.40
2018-03-06T23:33:39.141Z,60.23
2018-03-06T23:36:06.766Z,68.23
2018-03-06T23:38:35.181Z,63.30
2018-03-06T23:41:03.576Z,69.63
2018-03-06T23:43:31.594Z,63.37
2018-03-06T23:45:59.219Z,71.60
2018-03-06T23:48:26.848Z,64.13
2018-03-06T23:50:54.465Z,64.37
2018-03-06T23:53:22.466Z,69.60
2018-03-06T23:55:50.075Z,58.50
2018-03-06T23:58:18.504Z,61.13
